sensor_id;sensor_type;location;lat;lon;timestamp;pressure;altitude;pressure_sealevel;temperature;humidity
10075;BME280;5076;42.680;23.288;2022-07-29T09:25:51;94965.47;;;29.78;78.10
10075;BME280;5076;42.680;23.288;2022-07-29T09:28:18;94959.44;;;29.99;75.02
10075;BME280;5076;42.680;23.288;2022-07-29T09:30:51;94960.25;;;30.03;72.80
10075;BME280;5076;42.680;23.288;2022-07-29T09:33:18;94951.63;;;29.97;72.47
10075;BME280;5076;42.680;23.288;2022-07-29T09:35:45;94956.09;;;30.23;71.58
10075;BME280;5076;42.680;23.288;2022-07-29T09:38:13;94959.50;;;30.06;71.85
10075;BME280;5076;42.680;23.288;2022-07-29T09:40:40;94951.78;;;30.19;71.42
10075;BME280;5076;42.680;23.288;2022-07-29T09:43:12;62941.16;;;-142.87;100.00
10075;BME280;5076;42.680;23.288;2022-07-29T09:45:53;62941.16;;;-142.87;100.00
10075;BME280;5076;42.680;23.288;2022-07-29T09:48:22;62941.16;;;-142.87;100.00
10075;BME280;5076;42.680;23.288;2022-07-29T09:50:51;94940.28;;;30.50;66.42
10075;BME280;5076;42.680;23.288;2022-07-29T09:53:31;62941.16;;;-142.87;100.00
10075;BME280;5076;42.680;23.288;2022-07-29T09:55:59;94943.50;;;30.63;67.22
10075;BME280;5076;42.680;23.288;2022-07-29T09:58:27;94941.22;;;30.75;67.17
10075;BME280;5076;42.680;23.288;2022-07-29T10:00:56;94934.94;;;30.64;67.65
10075;BME280;5076;42.680;23.288;2022-07-29T10:03:25;62941.16;;;-142.87;100.00
10075;BME280;5076;42.680;23.288;2022-07-29T10:06:11;62941.16;;;-142.87;100.00
10075;BME280;5076;42.680;23.288;2022-07-29T10:08:39;62941.16;;;-142.87;100.00
10075;BME280;5076;42.680;23.288;2022-07-29T10:11:12;62941.16;;;-142.87;100.00
10075;BME280;5076;42.680;23.288;2022-07-29T10:13:42;62941.16;;;-142.87;100.00
10075;BME280;5076;42.680;23.288;2022-07-29T10:16:11;62941.16;;;-142.87;100.00
10075;BME280;5076;42.680;23.288;2022-07-29T10:18:39;94912.41;;;30.89;66.26
10075;BME280;5076;42.680;23.288;2022-07-29T10:21:06;94912.13;;;31.19;65.76
10075;BME280;5076;42.680;23.288;2022-07-29T10:23:34;94918.41;;;31.23;65.63
10075;BME280;5076;42.680;23.288;2022-07-29T10:26:02;62941.16;;;-142.87;100.00
10075;BME280;5076;42.680;23.288;2022-07-29T10:28:30;62941.16;;;-142.87;100.00
10075;BME280;5076;42.680;23.288;2022-07-29T10:31:02;94900.91;;;31.98;63.87
10075;BME280;5076;42.680;23.288;2022-07-29T10:33:42;94898.56;;;31.47;64.07
10075;BME280;5076;42.680;23.288;2022-07-29T10:36:24;94902.44;;;31.46;64.09
10075;BME280;5076;42.680;23.288;2022-07-29T10:39:02;94895.84;;;31.90;62.38
10075;BME280;5076;42.680;23.288;2022-07-29T10:41:48;94895.03;;;32.32;62.29
10075;BME280;5076;42.680;23.288;2022-07-29T10:44:53;62941.16;;;-142.87;100.00
10075;BME280;5076;42.680;23.288;2022-07-29T10:47:47;62941.16;;;-142.87;100.00
10075;BME280;5076;42.680;23.288;2022-07-29T10:51:11;62941.16;;;-142.87;100.00
10075;BME280;5076;42.680;23.288;2022-07-29T10:53:50;62941.16;;;-142.87;100.00
10075;BME280;5076;42.680;23.288;2022-07-29T10:56:33;62941.16;;;-142.87;100.00
10075;BME280;5076;42.680;23.288;2022-07-29T10:59:29;62941.16;;;-142.87;100.00
10075;BME280;5076;42.680;23.288;2022-07-29T11:02:10;62941.16;;;-142.87;100.00
10075;BME280;5076;42.680;23.288;2022-07-29T11:05:01;94859.41;;;32.46;57.47
10075;BME280;5076;42.680;23.288;2022-07-29T11:07:29;94849.97;;;32.61;56.13
10075;BME280;5076;42.680;23.288;2022-07-29T11:10:22;62941.16;;;-142.87;100.00
10075;BME280;5076;42.680;23.288;2022-07-29T11:12:49;62941.16;;;-142.87;100.00
10075;BME280;5076;42.680;23.288;2022-07-29T11:15:19;62941.16;;;-142.87;100.00
10075;BME280;5076;42.680;23.288;2022-07-29T11:18:08;94850.72;;;32.76;56.34
10075;BME280;5076;42.680;23.288;2022-07-29T11:20:52;62941.16;;;-142.87;100.00
10075;BME280;5076;42.680;23.288;2022-07-29T11:23:24;94850.16;;;33.06;56.67
10075;BME280;5076;42.680;23.288;2022-07-29T11:26:14;94839.41;;;33.36;56.85
10075;BME280;5076;42.680;23.288;2022-07-29T11:28:56;62941.16;;;-142.87;100.00
10075;BME280;5076;42.680;23.288;2022-07-29T11:31:36;94842.41;;;32.97;55.53
10075;BME280;5076;42.680;23.288;2022-07-29T11:34:25;62941.16;;;-142.87;100.00
10075;BME280;5076;42.680;23.288;2022-07-29T11:37:16;62941.16;;;-142.87;100.00
10075;BME280;5076;42.680;23.288;2022-07-29T11:39:46;62941.16;;;-142.87;100.00
10075;BME280;5076;42.680;23.288;2022-07-29T11:42:37;62941.16;;;-142.87;100.00
10075;BME280;5076;42.680;23.288;2022-07-29T11:45:05;62941.16;;;-142.87;100.00
10075;BME280;5076;42.680;23.288;2022-07-29T11:47:51;62941.16;;;-142.87;100.00
10075;BME280;5076;42.680;23.288;2022-07-29T11:50:33;62941.16;;;-142.87;100.00
10075;BME280;5076;42.680;23.288;2022-07-29T11:53:05;62941.16;;;-142.87;100.00
10075;BME280;5076;42.680;23.288;2022-07-29T11:55:37;62941.16;;;-142.87;100.00
10075;BME280;5076;42.680;23.288;2022-07-29T11:58:05;94824.78;;;32.98;54.68
10075;BME280;5076;42.680;23.288;2022-07-29T12:00:34;94828.88;;;33.31;52.83
10075;BME280;5076;42.680;23.288;2022-07-29T12:03:04;94830.47;;;33.77;51.15
10075;BME280;5076;42.680;23.288;2022-07-29T12:05:33;94819.28;;;34.02;50.89
10075;BME280;5076;42.680;23.288;2022-07-29T12:08:14;94819.28;;;34.01;100.00
10075;BME280;5076;42.680;23.288;2022-07-29T12:10:42;94830.41;;;33.84;50.25
10075;BME280;5076;42.680;23.288;2022-07-29T12:13:10;94811.25;;;34.21;50.06
10075;BME280;5076;42.680;23.288;2022-07-29T12:15:37;94813.22;;;34.17;48.98
10075;BME280;5076;42.680;23.288;2022-07-29T12:18:15;94807.09;;;34.06;49.05
10075;BME280;5076;42.680;23.288;2022-07-29T12:20:42;94815.66;;;34.46;47.71
10075;BME280;5076;42.680;23.288;2022-07-29T12:23:10;94815.88;;;34.62;46.69
10075;BME280;5076;42.680;23.288;2022-07-29T12:25:41;94814.03;;;34.52;46.76
10075;BME280;5076;42.680;23.288;2022-07-29T12:28:09;94811.19;;;34.59;46.37
10075;BME280;5076;42.680;23.288;2022-07-29T12:30:42;94806.22;;;34.50;47.35
10075;BME280;5076;42.680;23.288;2022-07-29T12:33:18;94804.56;;;34.56;47.71
10075;BME280;5076;42.680;23.288;2022-07-29T12:35:47;94808.41;;;34.63;46.48
10075;BME280;5076;42.680;23.288;2022-07-29T12:38:16;94798.00;;;34.47;46.47
10075;BME280;5076;42.680;23.288;2022-07-29T12:40:46;94808.69;;;34.38;46.51
10075;BME280;5076;42.680;23.288;2022-07-29T12:43:14;94799.97;;;34.46;45.46
10075;BME280;5076;42.680;23.288;2022-07-29T12:45:43;94797.44;;;34.63;45.33
10075;BME280;5076;42.680;23.288;2022-07-29T12:48:11;62941.16;;;-142.87;100.00
10075;BME280;5076;42.680;23.288;2022-07-29T12:50:55;62941.16;;;-142.87;100.00
10075;BME280;5076;42.680;23.288;2022-07-29T12:53:22;62941.16;;;-142.87;100.00
10075;BME280;5076;42.680;23.288;2022-07-29T12:55:52;62941.16;;;-142.87;100.00
10075;BME280;5076;42.680;23.288;2022-07-29T12:58:31;62941.16;;;-142.87;100.00
10075;BME280;5076;42.680;23.288;2022-07-29T13:01:01;62941.16;;;-142.87;100.00
10075;BME280;5076;42.680;23.288;2022-07-29T13:03:28;62941.16;;;-142.87;100.00
10075;BME280;5076;42.680;23.288;2022-07-29T13:05:55;94776.53;;;35.49;42.53
10075;BME280;5076;42.680;23.288;2022-07-29T13:08:22;62941.16;;;-142.87;100.00
10075;BME280;5076;42.680;23.288;2022-07-29T13:10:52;62941.16;;;-142.87;100.00
10075;BME280;5076;42.680;23.288;2022-07-29T13:13:19;62941.16;;;-142.87;100.00
10075;BME280;5076;42.680;23.288;2022-07-29T13:15:46;62941.16;;;-142.87;100.00
10075;BME280;5076;42.680;23.288;2022-07-29T13:18:34;94765.00;;;36.24;40.77
10075;BME280;5076;42.680;23.288;2022-07-29T13:21:10;94760.88;;;36.72;39.88
10075;BME280;5076;42.680;23.288;2022-07-29T13:23:38;94762.16;;;37.20;38.65
10075;BME280;5076;42.680;23.288;2022-07-29T13:26:07;62941.16;;;-142.87;100.00
10075;BME280;5076;42.680;23.288;2022-07-29T13:28:35;62941.16;;;-142.87;100.00
10075;BME280;5076;42.680;23.288;2022-07-29T13:31:01;94756.31;;;37.95;36.80
10075;BME280;5076;42.680;23.288;2022-07-29T13:33:30;94754.84;;;37.29;37.41
10075;BME280;5076;42.680;23.288;2022-07-29T13:35:57;94745.44;;;37.43;38.10
10075;BME280;5076;42.680;23.288;2022-07-29T13:38:24;94733.28;;;37.73;38.04
10075;BME280;5076;42.680;23.288;2022-07-29T13:40:51;94736.28;;;37.79;36.85
10075;BME280;5076;42.680;23.288;2022-07-29T13:43:19;94729.19;;;38.35;35.64
10075;BME280;5076;42.680;23.288;2022-07-29T13:45:46;94732.47;;;37.89;36.50
10075;BME280;5076;42.680;23.288;2022-07-29T13:48:13;94733.84;;;37.81;35.89
10075;BME280;5076;42.680;23.288;2022-07-29T13:50:40;94738.16;;;38.40;35.14
10075;BME280;5076;42.680;23.288;2022-07-29T13:53:07;94735.81;;;38.80;34.96
10075;BME280;5076;42.680;23.288;2022-07-29T13:55:34;94737.13;;;39.13;33.75
10075;BME280;5076;42.680;23.288;2022-07-29T13:58:02;94736.34;;;38.87;34.11
10075;BME280;5076;42.680;23.288;2022-07-29T14:00:30;94743.88;;;38.99;34.06
10075;BME280;5076;42.680;23.288;2022-07-29T14:02:57;94733.44;;;39.54;32.77
10075;BME280;5076;42.680;23.288;2022-07-29T14:05:24;94742.97;;;39.28;32.73
10075;BME280;5076;42.680;23.288;2022-07-29T14:07:51;94745.94;;;39.46;32.86
10075;BME280;5076;42.680;23.288;2022-07-29T14:10:18;94742.47;;;39.67;32.05
10075;BME280;5076;42.680;23.288;2022-07-29T14:12:45;94738.69;;;39.87;32.11
10075;BME280;5076;42.680;23.288;2022-07-29T14:15:12;94740.88;;;40.35;31.79
10075;BME280;5076;42.680;23.288;2022-07-29T14:17:40;94725.56;;;40.00;31.39
10075;BME280;5076;42.680;23.288;2022-07-29T14:20:08;94732.94;;;40.03;31.53
10075;BME280;5076;42.680;23.288;2022-07-29T14:22:35;94732.91;;;39.47;32.08
10075;BME280;5076;42.680;23.288;2022-07-29T14:25:03;94733.47;;;39.16;32.62
10075;BME280;5076;42.680;23.288;2022-07-29T14:27:29;94727.63;;;39.14;31.98
10075;BME280;5076;42.680;23.288;2022-07-29T14:29:57;94735.91;;;39.14;32.23
10075;BME280;5076;42.680;23.288;2022-07-29T14:32:24;94730.19;;;39.68;31.55
10075;BME280;5076;42.680;23.288;2022-07-29T14:34:52;94728.31;;;40.00;31.25
10075;BME280;5076;42.680;23.288;2022-07-29T14:37:19;94724.81;;;40.74;30.33
10075;BME280;5076;42.680;23.288;2022-07-29T14:39:46;94735.59;;;40.81;30.21
10075;BME280;5076;42.680;23.288;2022-07-29T14:42:13;94738.28;;;41.34;29.40
10075;BME280;5076;42.680;23.288;2022-07-29T14:44:40;94733.59;;;41.80;29.10
10075;BME280;5076;42.680;23.288;2022-07-29T14:47:07;94721.28;;;41.99;28.19
10075;BME280;5076;42.680;23.288;2022-07-29T14:49:34;94733.88;;;41.73;28.73
10075;BME280;5076;42.680;23.288;2022-07-29T14:52:03;94729.75;;;41.77;28.21
10075;BME280;5076;42.680;23.288;2022-07-29T14:54:30;94713.41;;;42.07;27.83
10075;BME280;5076;42.680;23.288;2022-07-29T14:56:57;94724.66;;;41.67;27.90
10075;BME280;5076;42.680;23.288;2022-07-29T14:59:23;94716.00;;;41.92;27.88
10075;BME280;5076;42.680;23.288;2022-07-29T15:01:50;94718.31;;;41.94;27.70
10075;BME280;5076;42.680;23.288;2022-07-29T15:04:17;94720.19;;;42.15;27.29
10075;BME280;5076;42.680;23.288;2022-07-29T15:06:44;94719.28;;;42.00;27.33
10075;BME280;5076;42.680;23.288;2022-07-29T15:09:13;94713.53;;;42.22;27.21
10075;BME280;5076;42.680;23.288;2022-07-29T15:11:40;94712.66;;;42.76;26.96
10075;BME280;5076;42.680;23.288;2022-07-29T15:14:06;94711.94;;;42.57;26.94
10075;BME280;5076;42.680;23.288;2022-07-29T15:16:35;94718.06;;;42.79;26.86
10075;BME280;5076;42.680;23.288;2022-07-29T15:19:02;94720.66;;;42.92;26.17
10075;BME280;5076;42.680;23.288;2022-07-29T15:21:29;94721.91;;;42.82;26.31
10075;BME280;5076;42.680;23.288;2022-07-29T15:23:56;94716.63;;;42.42;26.26
10075;BME280;5076;42.680;23.288;2022-07-29T15:26:25;62941.16;;;-142.87;100.00
10075;BME280;5076;42.680;23.288;2022-07-29T15:28:52;94705.66;;;42.38;26.28
10075;BME280;5076;42.680;23.288;2022-07-29T15:31:20;94697.97;;;41.97;26.41
10075;BME280;5076;42.680;23.288;2022-07-29T15:33:47;94711.19;;;41.47;27.62
10075;BME280;5076;42.680;23.288;2022-07-29T15:36:14;94709.84;;;39.97;29.08
10075;BME280;5076;42.680;23.288;2022-07-29T15:38:41;94707.94;;;38.61;30.21
10075;BME280;5076;42.680;23.288;2022-07-29T15:41:12;94705.88;;;37.50;31.50
10075;BME280;5076;42.680;23.288;2022-07-29T15:43:43;94712.75;;;36.41;33.55
10075;BME280;5076;42.680;23.288;2022-07-29T15:46:12;94707.91;;;35.66;34.93
10075;BME280;5076;42.680;23.288;2022-07-29T15:48:57;94710.06;;;34.84;36.77
10075;BME280;5076;42.680;23.288;2022-07-29T15:51:24;94703.97;;;35.67;35.40
10075;BME280;5076;42.680;23.288;2022-07-29T15:53:51;94700.81;;;36.47;34.36
10075;BME280;5076;42.680;23.288;2022-07-29T15:56:18;94704.66;;;35.94;34.98
10075;BME280;5076;42.680;23.288;2022-07-29T15:58:46;94708.47;;;35.10;36.64
10075;BME280;5076;42.680;23.288;2022-07-29T16:01:13;94704.13;;;34.59;37.29
10075;BME280;5076;42.680;23.288;2022-07-29T16:03:40;94700.94;;;34.03;39.01
10075;BME280;5076;42.680;23.288;2022-07-29T16:06:07;94703.94;;;33.44;40.19
10075;BME280;5076;42.680;23.288;2022-07-29T16:08:34;94702.19;;;33.16;41.60
10075;BME280;5076;42.680;23.288;2022-07-29T16:11:01;94702.38;;;32.95;41.98
10075;BME280;5076;42.680;23.288;2022-07-29T16:13:28;94707.59;;;32.75;43.10
10075;BME280;5076;42.680;23.288;2022-07-29T16:15:57;94705.91;;;32.30;45.28
10075;BME280;5076;42.680;23.288;2022-07-29T16:18:24;94711.78;;;32.25;45.26
10075;BME280;5076;42.680;23.288;2022-07-29T16:20:50;94715.00;;;32.02;46.38
10075;BME280;5076;42.680;23.288;2022-07-29T16:23:17;94715.00;;;31.98;46.61
10075;BME280;5076;42.680;23.288;2022-07-29T16:25:45;94711.03;;;32.21;46.91
10075;BME280;5076;42.680;23.288;2022-07-29T16:28:12;94714.63;;;32.80;45.64
10075;BME280;5076;42.680;23.288;2022-07-29T16:30:39;94711.25;;;32.51;46.20
10075;BME280;5076;42.680;23.288;2022-07-29T16:33:07;94714.94;;;32.12;47.18
10075;BME280;5076;42.680;23.288;2022-07-29T16:35:34;94715.09;;;31.70;48.03
10075;BME280;5076;42.680;23.288;2022-07-29T16:38:03;94715.50;;;31.61;48.84
10075;BME280;5076;42.680;23.288;2022-07-29T16:40:30;94729.94;;;31.47;49.33
10075;BME280;5076;42.680;23.288;2022-07-29T16:42:57;94724.09;;;31.53;49.39
10075;BME280;5076;42.680;23.288;2022-07-29T16:45:24;94719.00;;;31.62;49.87
10075;BME280;5076;42.680;23.288;2022-07-29T16:47:53;94710.78;;;32.63;47.76
10075;BME280;5076;42.680;23.288;2022-07-29T16:50:21;94711.06;;;33.31;45.47
10075;BME280;5076;42.680;23.288;2022-07-29T16:52:50;94706.38;;;33.32;44.20
10075;BME280;5076;42.680;23.288;2022-07-29T16:55:17;94724.41;;;33.29;44.64
10075;BME280;5076;42.680;23.288;2022-07-29T16:57:44;94713.44;;;32.77;45.41
10075;BME280;5076;42.680;23.288;2022-07-29T17:00:12;94723.41;;;32.43;46.52
10075;BME280;5076;42.680;23.288;2022-07-29T17:02:39;94719.63;;;32.12;47.00
10075;BME280;5076;42.680;23.288;2022-07-29T17:05:07;94724.44;;;31.83;46.78
10075;BME280;5076;42.680;23.288;2022-07-29T17:07:36;94716.31;;;31.40;47.95
10075;BME280;5076;42.680;23.288;2022-07-29T17:10:04;94726.84;;;31.38;48.47
10075;BME280;5076;42.680;23.288;2022-07-29T17:12:32;94717.69;;;32.12;46.71
10075;BME280;5076;42.680;23.288;2022-07-29T17:15:00;94722.63;;;32.46;46.44
10075;BME280;5076;42.680;23.288;2022-07-29T17:17:27;94717.69;;;32.12;46.42
10075;BME280;5076;42.680;23.288;2022-07-29T17:19:54;94722.91;;;31.61;47.92
10075;BME280;5076;42.680;23.288;2022-07-29T17:22:21;94721.75;;;31.47;48.50
10075;BME280;5076;42.680;23.288;2022-07-29T17:24:50;94728.03;;;31.20;48.81
10075;BME280;5076;42.680;23.288;2022-07-29T17:27:17;94728.41;;;30.93;50.21
10075;BME280;5076;42.680;23.288;2022-07-29T17:29:44;94730.75;;;30.81;50.26
10075;BME280;5076;42.680;23.288;2022-07-29T17:32:12;94724.47;;;30.62;51.44
10075;BME280;5076;42.680;23.288;2022-07-29T17:34:40;94730.56;;;30.17;51.76
10075;BME280;5076;42.680;23.288;2022-07-29T17:37:09;94730.16;;;30.11;52.65
10075;BME280;5076;42.680;23.288;2022-07-29T17:39:37;94729.72;;;29.98;52.74
10075;BME280;5076;42.680;23.288;2022-07-29T17:42:07;94730.38;;;29.74;53.55
10075;BME280;5076;42.680;23.288;2022-07-29T17:44:35;94729.00;;;29.39;55.25
10075;BME280;5076;42.680;23.288;2022-07-29T17:47:02;94730.09;;;29.31;55.71
10075;BME280;5076;42.680;23.288;2022-07-29T17:49:29;62941.16;;;-142.87;100.00
10075;BME280;5076;42.680;23.288;2022-07-29T17:51:56;62941.16;;;-142.87;100.00
10075;BME280;5076;42.680;23.288;2022-07-29T17:54:23;94734.34;;;28.81;56.31
10075;BME280;5076;42.680;23.288;2022-07-29T17:56:50;94727.97;;;28.66;57.33
10075;BME280;5076;42.680;23.288;2022-07-29T17:59:19;94727.84;;;28.52;56.99
10075;BME280;5076;42.680;23.288;2022-07-29T18:01:46;94733.97;;;28.46;57.54
10075;BME280;5076;42.680;23.288;2022-07-29T18:04:13;94742.09;;;28.42;56.58
10075;BME280;5076;42.680;23.288;2022-07-29T18:06:44;94743.22;;;28.38;56.22
10075;BME280;5076;42.680;23.288;2022-07-29T18:09:11;62941.16;;;-142.87;100.00
10075;BME280;5076;42.680;23.288;2022-07-29T18:11:38;62941.16;;;-142.87;100.00
10075;BME280;5076;42.680;23.288;2022-07-29T18:14:05;94737.16;;;28.18;56.76
10075;BME280;5076;42.680;23.288;2022-07-29T18:16:33;62941.16;;;-142.87;100.00
10075;BME280;5076;42.680;23.288;2022-07-29T18:19:00;62941.16;;;-142.87;100.00
10075;BME280;5076;42.680;23.288;2022-07-29T18:21:27;94783.34;;;-94.89;57.12
10075;BME280;5076;42.680;23.288;2022-07-29T18:23:54;62941.16;;;-142.87;100.00
10075;BME280;5076;42.680;23.288;2022-07-29T18:26:21;94758.84;;;27.84;57.88
10075;BME280;5076;42.680;23.288;2022-07-29T18:28:48;94757.28;;;27.80;56.56
10075;BME280;5076;42.680;23.288;2022-07-29T18:31:15;94762.16;;;27.71;57.74
10075;BME280;5076;42.680;23.288;2022-07-29T18:33:43;94765.63;;;27.67;57.30
10075;BME280;5076;42.680;23.288;2022-07-29T18:36:13;94767.91;;;27.65;57.91
10075;BME280;5076;42.680;23.288;2022-07-29T18:38:41;94767.88;;;27.62;57.80
10075;BME280;5076;42.680;23.288;2022-07-29T18:41:07;94766.31;;;27.61;58.53
10075;BME280;5076;42.680;23.288;2022-07-29T18:43:34;94764.75;;;27.60;57.76
10075;BME280;5076;42.680;23.288;2022-07-29T18:46:01;62941.16;;;-142.87;100.00
10075;BME280;5076;42.680;23.288;2022-07-29T18:48:30;94768.81;;;27.50;58.13
10075;BME280;5076;42.680;23.288;2022-07-29T18:50:59;94778.09;;;27.46;58.77
10075;BME280;5076;42.680;23.288;2022-07-29T18:53:26;94782.69;;;27.42;59.28
10075;BME280;5076;42.680;23.288;2022-07-29T18:55:52;62941.16;;;-142.87;100.00
10075;BME280;5076;42.680;23.288;2022-07-29T18:58:21;94784.91;;;27.36;59.89
10075;BME280;5076;42.680;23.288;2022-07-29T19:00:48;62941.16;;;-142.87;100.00
10075;BME280;5076;42.680;23.288;2022-07-29T19:03:15;62941.16;;;-142.87;100.00
10075;BME280;5076;42.680;23.288;2022-07-29T19:05:42;62941.16;;;-142.87;100.00
10075;BME280;5076;42.680;23.288;2022-07-29T19:08:10;62941.16;;;-142.87;100.00
10075;BME280;5076;42.680;23.288;2022-07-29T19:10:38;62941.16;;;-142.87;100.00
10075;BME280;5076;42.680;23.288;2022-07-29T19:13:06;62941.16;;;-142.87;100.00
10075;BME280;5076;42.680;23.288;2022-07-29T19:15:33;94784.91;;;23.53;59.89
10075;BME280;5076;42.680;23.288;2022-07-29T19:18:00;94787.44;;;26.99;62.72
10075;BME280;5076;42.680;23.288;2022-07-29T19:20:27;62941.16;;;-142.87;100.00
10075;BME280;5076;42.680;23.288;2022-07-29T19:22:54;62941.16;;;-142.87;100.00
10075;BME280;5076;42.680;23.288;2022-07-29T19:25:22;62941.16;;;-142.87;100.00
10075;BME280;5076;42.680;23.288;2022-07-29T19:27:49;94805.22;;;26.96;62.67
10075;BME280;5076;42.680;23.288;2022-07-29T19:30:16;94805.47;;;26.91;63.37
10075;BME280;5076;42.680;23.288;2022-07-29T19:32:43;94813.84;;;26.83;64.58
10075;BME280;5076;42.680;23.288;2022-07-29T19:35:10;94809.03;;;26.73;65.28
10075;BME280;5076;42.680;23.288;2022-07-29T19:37:58;94805.75;;;26.63;66.13
10075;BME280;5076;42.680;23.288;2022-07-29T19:40:28;94815.13;;;26.47;67.34
10075;BME280;5076;42.680;23.288;2022-07-29T19:42:55;94820.06;;;26.41;68.25
10075;BME280;5076;42.680;23.288;2022-07-29T19:45:23;94823.75;;;26.33;69.47
10075;BME280;5076;42.680;23.288;2022-07-29T19:47:51;94817.41;;;26.25;70.12
10075;BME280;5076;42.680;23.288;2022-07-29T19:50:17;94812.97;;;26.17;71.12
10075;BME280;5076;42.680;23.288;2022-07-29T19:52:44;94819.88;;;26.15;71.79
10075;BME280;5076;42.680;23.288;2022-07-29T19:55:12;94813.88;;;26.06;72.64
10075;BME280;5076;42.680;23.288;2022-07-29T19:57:41;94806.75;;;25.98;73.04
10075;BME280;5076;42.680;23.288;2022-07-29T20:00:09;94814.59;;;26.03;73.00
10075;BME280;5076;42.680;23.288;2022-07-29T20:02:36;94821.56;;;26.04;73.14
10075;BME280;5076;42.680;23.288;2022-07-29T20:05:04;94818.78;;;26.00;73.61
10075;BME280;5076;42.680;23.288;2022-07-29T20:07:31;94815.28;;;26.00;73.33
10075;BME280;5076;42.680;23.288;2022-07-29T20:09:58;94813.72;;;25.99;73.58
10075;BME280;5076;42.680;23.288;2022-07-29T20:12:25;94811.00;;;25.99;73.56
10075;BME280;5076;42.680;23.288;2022-07-29T20:14:53;94815.94;;;25.93;73.99
10075;BME280;5076;42.680;23.288;2022-07-29T20:17:20;94805.81;;;25.90;74.38
10075;BME280;5076;42.680;23.288;2022-07-29T20:19:47;94808.16;;;25.91;74.73
10075;BME280;5076;42.680;23.288;2022-07-29T20:22:15;94810.00;;;25.87;75.03
10075;BME280;5076;42.680;23.288;2022-07-29T20:24:42;94804.50;;;25.84;75.29
10075;BME280;5076;42.680;23.288;2022-07-29T20:27:09;94805.59;;;25.79;75.85
10075;BME280;5076;42.680;23.288;2022-07-29T20:29:36;94815.34;;;25.84;75.86
10075;BME280;5076;42.680;23.288;2022-07-29T20:32:05;94818.25;;;25.75;76.34
10075;BME280;5076;42.680;23.288;2022-07-29T20:34:32;94806.13;;;25.69;77.08
10075;BME280;5076;42.680;23.288;2022-07-29T20:36:59;62941.16;;;-142.87;100.00
10075;BME280;5076;42.680;23.288;2022-07-29T20:39:26;62941.16;;;-142.87;100.00
10075;BME280;5076;42.680;23.288;2022-07-29T20:41:53;62941.16;;;-142.87;100.00
10075;BME280;5076;42.680;23.288;2022-07-29T20:44:20;62941.16;;;-142.87;100.00
10075;BME280;5076;42.680;23.288;2022-07-29T20:46:48;62941.16;;;-142.87;100.00
10075;BME280;5076;42.680;23.288;2022-07-29T20:49:17;62941.16;;;-142.87;100.00
10075;BME280;5076;42.680;23.288;2022-07-29T20:51:44;62941.16;;;-142.87;100.00
10075;BME280;5076;42.680;23.288;2022-07-29T20:54:10;62941.16;;;-142.87;100.00
10075;BME280;5076;42.680;23.288;2022-07-29T20:56:38;62941.16;;;-142.87;100.00
10075;BME280;5076;42.680;23.288;2022-07-29T20:59:06;62941.16;;;-142.87;100.00
10075;BME280;5076;42.680;23.288;2022-07-29T21:01:33;62941.16;;;-142.87;100.00
10075;BME280;5076;42.680;23.288;2022-07-29T21:04:00;62941.16;;;-142.87;100.00
10075;BME280;5076;42.680;23.288;2022-07-29T21:06:28;62941.16;;;-142.87;100.00
10075;BME280;5076;42.680;23.288;2022-07-29T21:08:59;62941.16;;;-142.87;100.00
10075;BME280;5076;42.680;23.288;2022-07-29T21:11:28;62941.16;;;-142.87;100.00
10075;BME280;5076;42.680;23.288;2022-07-29T21:13:55;62941.16;;;-142.87;100.00
10075;BME280;5076;42.680;23.288;2022-07-29T21:16:22;62941.16;;;-142.87;100.00
10075;BME280;5076;42.680;23.288;2022-07-29T21:18:50;62941.16;;;-142.87;100.00
10075;BME280;5076;42.680;23.288;2022-07-29T21:21:18;62941.16;;;-142.87;100.00
10075;BME280;5076;42.680;23.288;2022-07-29T21:23:46;62941.16;;;-142.87;100.00
10075;BME280;5076;42.680;23.288;2022-07-29T21:26:13;62941.16;;;-142.87;100.00
10075;BME280;5076;42.680;23.288;2022-07-29T21:28:40;62941.16;;;-142.87;100.00
10075;BME280;5076;42.680;23.288;2022-07-29T21:31:07;62941.16;;;-142.87;100.00
10075;BME280;5076;42.680;23.288;2022-07-29T21:33:35;62941.16;;;-142.87;100.00
10075;BME280;5076;42.680;23.288;2022-07-29T21:36:03;62941.16;;;-142.87;100.00
10075;BME280;5076;42.680;23.288;2022-07-29T21:38:30;62941.16;;;-142.87;100.00
10075;BME280;5076;42.680;23.288;2022-07-29T21:40:59;62941.16;;;-142.87;100.00
10075;BME280;5076;42.680;23.288;2022-07-29T21:43:26;62941.16;;;-142.87;100.00
10075;BME280;5076;42.680;23.288;2022-07-29T21:45:53;62941.16;;;-142.87;100.00
10075;BME280;5076;42.680;23.288;2022-07-29T21:48:22;62941.16;;;-142.87;100.00
10075;BME280;5076;42.680;23.288;2022-07-29T21:50:49;62941.16;;;-142.87;100.00
10075;BME280;5076;42.680;23.288;2022-07-29T21:53:17;62941.16;;;-142.87;100.00
10075;BME280;5076;42.680;23.288;2022-07-29T21:55:44;62941.16;;;-142.87;100.00
10075;BME280;5076;42.680;23.288;2022-07-29T21:58:13;62941.16;;;-142.87;100.00
10075;BME280;5076;42.680;23.288;2022-07-29T22:00:41;62941.16;;;-142.87;100.00
10075;BME280;5076;42.680;23.288;2022-07-29T22:03:08;62941.16;;;-142.87;100.00
10075;BME280;5076;42.680;23.288;2022-07-29T22:05:35;62941.16;;;-142.87;100.00
10075;BME280;5076;42.680;23.288;2022-07-29T22:08:02;62941.16;;;-142.87;100.00
10075;BME280;5076;42.680;23.288;2022-07-29T22:10:30;62941.16;;;-142.87;100.00
10075;BME280;5076;42.680;23.288;2022-07-29T22:12:59;62941.16;;;-142.87;100.00
10075;BME280;5076;42.680;23.288;2022-07-29T22:15:29;62941.16;;;-142.87;100.00
10075;BME280;5076;42.680;23.288;2022-07-29T22:17:56;62941.16;;;-142.87;100.00
10075;BME280;5076;42.680;23.288;2022-07-29T22:20:23;62941.16;;;-142.87;100.00
10075;BME280;5076;42.680;23.288;2022-07-29T22:22:50;62941.16;;;-142.87;100.00
10075;BME280;5076;42.680;23.288;2022-07-29T22:25:17;62941.16;;;-142.87;100.00
10075;BME280;5076;42.680;23.288;2022-07-29T22:27:44;62941.16;;;-142.87;100.00